Terminal Aerodrome Forecast
Issued by NWS

Home | Current Version | Previous Version | Text Only | Print | Product List | Glossary On
Versions: 1 2 3 4 5 6 7 8 9 10 11 12 13 14 15 16
000
FTUS42 KILM 201700
TAFCRE
TAF
KCRE 201727Z 2018/2118 14006KT P6SM SCT040
     FM202200 VRB03KT P6SM BKN040
     FM210600 VRB02KT P6SM VCSH SCT040
     FM211400 33006KT P6SM FEW040=

USA.gov is the U.S. government's official web portal to all federal, state and local government web resources and services.